Time;durP1;ratioP1;P1;durP2;ratioP2;P2;SDS_P1;SDS_P2;PMS_P1;PMS_P2;Temp;Humidity;BMP_temperature;BMP_pressure;BME280_temperature;BME280_humidity;BME280_pressure;Samples;Min_cycle;Max_cycle;Signal;HPM_P1;HPM_P2
2021/11/23 00:00:08;;;;;;;8.13;5.80;;;4.80;81.30;;;2.81;92.99;96775.81;4970730;28;20090;-66
2021/11/23 00:02:34;;;;;;;10.30;6.40;;;4.80;81.10;;;2.79;92.73;96777.69;4954496;28;20042;-66
2021/11/23 00:05:00;;;;;;;8.82;6.57;;;4.70;81.10;;;2.79;93.02;96782.06;4970620;28;20035;-66
2021/11/23 00:07:26;;;;;;;10.88;6.68;;;4.70;81.00;;;2.75;93.04;96784.91;4945606;28;20630;-66
2021/11/23 00:09:51;;;;;;;8.90;6.57;;;4.70;81.00;;;2.75;92.86;96786.69;4969357;28;20091;-66
2021/11/23 00:12:17;;;;;;;8.07;6.18;;;4.70;81.10;;;2.74;92.69;96795.44;4966835;28;20124;-65
2021/11/23 00:14:43;;;;;;;8.55;6.50;;;4.70;81.10;;;2.72;92.91;96784.34;4971285;28;20046;-65
2021/11/23 00:17:09;;;;;;;7.20;5.88;;;4.70;80.80;;;2.72;92.77;96786.94;4944268;28;20042;-65
2021/11/23 00:19:34;;;;;;;9.35;6.20;;;4.70;80.90;;;2.70;92.47;96788.81;4967912;28;20105;-65
2021/11/23 00:22:00;;;;;;;9.15;6.30;;;4.70;80.70;;;2.68;92.52;96795.91;4967553;28;20047;-66
2021/11/23 00:24:26;;;;;;;10.77;6.88;;;4.60;80.60;;;2.66;92.15;96801.22;4972072;28;20035;-65
2021/11/23 00:26:52;;;;;;;8.45;6.35;;;4.70;80.50;;;2.66;92.09;96800.41;4953418;28;20067;-65
2021/11/23 00:29:17;;;;;;;9.45;6.50;;;4.60;80.50;;;2.65;92.60;96806.53;4967251;28;20054;-65
2021/11/23 00:31:43;;;;;;;8.88;6.80;;;4.70;80.50;;;2.63;92.11;96800.66;4967679;28;20034;-66
2021/11/23 00:34:09;;;;;;;8.82;6.07;;;4.60;80.40;;;2.61;92.07;96805.97;4963782;28;20074;-65
2021/11/23 00:36:34;;;;;;;8.55;6.40;;;4.60;80.10;;;2.58;91.67;96805.41;4966769;28;20070;-65
2021/11/23 00:39:00;;;;;;;8.85;6.22;;;4.50;79.80;;;2.56;91.72;96809.88;4951213;28;20042;-65
2021/11/23 00:41:26;;;;;;;13.18;7.32;;;4.50;79.90;;;2.52;91.78;96805.91;4970529;28;20403;-66
2021/11/23 00:43:52;;;;;;;8.85;5.90;;;4.50;80.00;;;2.50;92.14;96807.78;4980897;28;20042;-66
2021/11/23 00:46:17;;;;;;;9.68;6.25;;;4.40;80.10;;;2.45;91.56;96806.34;4968499;28;20077;-66
2021/11/23 00:48:43;;;;;;;10.05;6.53;;;4.40;80.50;;;2.45;91.81;96810.72;4968304;28;20046;-66
2021/11/23 00:51:09;;;;;;;8.65;6.22;;;4.40;80.40;;;2.44;91.71;96815.09;4952443;28;20043;-66
2021/11/23 00:53:35;;;;;;;9.48;6.53;;;4.40;79.90;;;2.41;91.48;96814.50;4971461;28;20031;-66
2021/11/23 00:56:02;;;;;;;8.55;6.40;;;4.30;79.90;;;2.37;91.42;96820.91;4968285;28;20095;-66
2021/11/23 00:58:27;;;;;;;9.75;6.97;;;4.20;79.70;;;2.33;91.12;96817.72;4966543;28;20035;-65
2021/11/23 01:00:53;;;;;;;8.30;6.10;;;4.20;80.10;;;2.29;91.19;96818.91;4961854;28;20043;-66
2021/11/23 01:03:19;;;;;;;9.38;6.47;;;4.10;79.80;;;2.26;90.74;96816.53;4967895;28;20038;-65
2021/11/23 01:05:46;;;;;;;12.95;6.50;;;4.10;80.00;;;2.22;91.14;96820.31;4958858;28;20055;-66
2021/11/23 01:08:15;;;;;;;9.70;7.03;;;4.10;80.00;;;2.19;91.16;96817.97;4984650;23;20169;-65
2021/11/23 01:10:41;;;;;;;8.18;6.43;;;4.10;80.10;;;2.19;91.23;96823.16;4947415;28;20522;-64
2021/11/23 01:13:07;;;;;;;8.80;6.25;;;4.10;80.20;;;2.15;91.10;96824.34;4982668;28;20518;-64
2021/11/23 01:15:32;;;;;;;9.00;6.05;;;4.10;80.50;;;2.14;91.21;96822.69;4982606;28;20050;-64
2021/11/23 01:17:58;;;;;;;8.25;6.32;;;4.10;80.60;;;2.13;91.37;96818.44;4952852;28;20045;-65
2021/11/23 01:20:25;;;;;;;10.68;6.63;;;4.10;80.50;;;2.14;91.37;96820.09;4971506;28;20065;-65
2021/11/23 01:22:51;;;;;;;8.25;6.18;;;4.10;80.40;;;2.10;91.17;96822.13;4961167;28;20035;-65
2021/11/23 01:25:17;;;;;;;9.25;6.50;;;4.00;80.40;;;2.10;91.28;96831.66;4967038;28;20034;-65
2021/11/23 01:27:42;;;;;;;9.07;6.13;;;4.10;80.20;;;2.08;91.04;96829.19;4975992;28;20050;-65
2021/11/23 01:30:10;;;;;;;7.70;6.22;;;4.00;80.10;;;2.06;91.06;96825.06;4981803;28;20034;-65
2021/11/23 01:32:36;;;;;;;10.50;6.30;;;4.00;80.50;;;2.03;91.49;96820.09;4972908;28;20041;-65
2021/11/23 01:35:02;;;;;;;8.63;6.75;;;3.90;80.30;;;2.02;91.02;96818.44;4973553;28;20034;-64
2021/11/23 01:37:29;;;;;;;9.00;6.30;;;3.90;80.20;;;1.99;91.47;96826.47;4970450;28;20113;-64
2021/11/23 01:39:54;;;;;;;9.57;6.57;;;3.90;80.50;;;1.97;91.29;96825.75;4969210;28;20045;-65
2021/11/23 01:42:20;;;;;;;9.32;6.45;;;3.90;80.60;;;1.94;91.21;96820.81;4963985;28;20125;-64
2021/11/23 01:44:46;;;;;;;9.15;6.95;;;3.80;80.40;;;1.91;90.77;96821.06;4970644;28;20027;-64
2021/11/23 01:47:11;;;;;;;8.98;6.15;;;3.80;80.50;;;1.87;91.22;96823.06;4970286;28;20035;-65
2021/11/23 01:49:37;;;;;;;10.07;6.90;;;3.80;80.50;;;1.86;91.21;96828.38;4963278;28;20045;-71
2021/11/23 01:52:03;;;;;;;9.40;7.03;;;3.80;80.50;;;1.84;91.41;96825.88;4987063;28;20042;-64
2021/11/23 01:54:29;;;;;;;9.82;6.85;;;3.80;80.40;;;1.82;91.38;96831.19;4970536;28;20482;-65
2021/11/23 01:56:55;;;;;;;9.38;6.93;;;3.80;80.10;;;1.79;90.69;96834.00;4973645;28;20058;-64
2021/11/23 01:59:21;;;;;;;8.25;6.20;;;3.70;79.70;;;1.77;91.05;96833.28;4969707;28;20034;-65
2021/11/23 02:01:46;;;;;;;9.25;6.65;;;3.80;80.10;;;1.74;90.83;96833.53;4954388;28;20109;-64
2021/11/23 02:04:12;;;;;;;10.70;7.63;;;3.70;80.00;;;1.71;90.72;96831.16;4970534;28;20034;-65
2021/11/23 02:06:38;;;;;;;9.65;6.72;;;3.60;80.10;;;1.66;90.95;96827.28;4970003;28;20031;-65
2021/11/23 02:09:04;;;;;;;10.02;7.10;;;3.60;80.30;;;1.64;90.71;96829.16;4968765;28;20042;-64
2021/11/23 02:11:30;;;;;;;10.55;7.30;;;3.60;80.20;;;1.61;90.92;96832.81;4967455;28;20722;-65
2021/11/23 02:13:56;;;;;;;10.02;7.07;;;3.60;80.50;;;1.58;91.06;96838.22;4985714;28;20387;-65
2021/11/23 02:16:22;;;;;;;10.13;7.72;;;3.50;80.50;;;1.54;90.80;96835.03;4987391;28;20125;-65
2021/11/23 02:18:47;;;;;;;12.43;7.60;;;3.50;80.50;;;1.46;91.01;96827.00;4952738;28;20030;-65
2021/11/23 02:21:13;;;;;;;10.10;7.05;;;3.40;80.60;;;1.45;91.14;96834.91;4986075;28;20177;-65
2021/11/23 02:23:39;;;;;;;9.45;7.10;;;3.40;80.40;;;1.41;90.96;96836.91;4950167;28;20027;-64
2021/11/23 02:26:05;;;;;;;9.27;7.28;;;3.40;80.30;;;1.35;90.76;96829.56;4950755;28;20031;-64
2021/11/23 02:28:31;;;;;;;12.85;7.97;;;3.20;80.60;;;1.32;90.63;96841.94;4965479;28;20052;-65
2021/11/23 02:30:58;;;;;;;10.23;7.07;;;3.20;80.60;;;1.23;90.74;96831.31;4964341;28;20146;-65
2021/11/23 02:33:25;;;;;;;8.90;6.80;;;3.20;80.50;;;1.18;90.98;96836.00;4985187;28;20049;-64
2021/11/23 02:35:53;;;;;;;9.90;7.15;;;3.10;80.70;;;1.15;91.19;96838.84;4968642;28;20053;-65
2021/11/23 02:38:20;;;;;;;10.77;7.43;;;3.10;80.60;;;1.10;90.99;96840.91;4966000;28;20046;-64
2021/11/23 02:40:46;;;;;;;12.52;7.40;;;3.10;80.60;;;1.07;91.01;96838.56;4985932;28;20117;-64
2021/11/23 02:43:12;;;;;;;10.35;7.68;;;3.10;80.60;;;1.04;90.90;96833.59;4970087;28;20085;-64
2021/11/23 02:45:38;;;;;;;11.65;7.68;;;3.00;80.70;;;1.01;90.83;96840.78;4985336;28;20037;-64
2021/11/23 02:48:09;;;;;;;9.18;7.05;;;3.00;80.90;;;0.97;90.42;96839.34;4979673;28;20054;-64
2021/11/23 02:50:34;;;;;;;13.95;7.53;;;2.90;80.70;;;0.91;90.66;96848.41;4944787;28;20042;-64
2021/11/23 02:53:00;;;;;;;10.05;7.88;;;2.90;80.60;;;0.87;90.66;96840.00;4971506;28;20623;-65
2021/11/23 02:55:27;;;;;;;14.52;8.02;;;2.80;80.80;;;0.80;91.17;96848.34;4992963;28;20057;-64
2021/11/23 02:57:53;;;;;;;13.65;8.00;;;2.80;81.00;;;0.75;91.14;96846.06;4976171;28;20411;-64
2021/11/23 03:00:24;;;;;;;12.25;7.95;;;2.70;81.00;;;0.72;91.06;96846.31;4956895;28;20038;-64
2021/11/23 03:02:50;;;;;;;;;;;2.70;81.20;;;0.68;92.13;96846.59;4986849;28;20096;-65
2021/11/23 03:05:18;;;;;;;10.60;7.75;;;2.60;81.30;;;0.64;90.99;96838.25;4989799;28;19922;-65
2021/11/23 03:07:44;;;;;;;11.90;8.25;;;2.60;81.40;;;0.62;91.37;96840.13;4971087;28;20038;-65
2021/11/23 03:10:10;;;;;;;11.50;7.68;;;2.60;81.20;;;0.60;91.44;96842.81;4972099;28;20049;-66
2021/11/23 03:12:37;;;;;;;11.50;7.43;;;2.60;81.10;;;0.56;91.22;96849.16;4953903;28;20599;-65
2021/11/23 03:15:05;;;;;;;11.85;8.13;;;2.60;81.30;;;0.53;91.47;96841.59;4973846;28;20067;-64
2021/11/23 03:17:30;;;;;;;10.40;7.43;;;2.50;81.30;;;0.52;91.67;96832.19;4973826;28;20038;-65
2021/11/23 03:19:56;;;;;;;10.63;7.60;;;2.60;81.30;;;0.52;91.34;96839.94;4976623;28;20049;-65
2021/11/23 03:22:22;;;;;;;10.80;7.35;;;2.50;81.40;;;0.52;91.68;96847.72;5012085;28;20037;-64
2021/11/23 03:24:47;;;;;;;11.43;8.00;;;2.60;81.30;;;0.52;91.46;96852.91;5011368;28;20579;-64
2021/11/23 03:27:13;;;;;;;13.38;8.40;;;2.60;81.30;;;0.53;91.86;96841.59;5013702;28;20497;-64
2021/11/23 03:29:39;;;;;;;10.43;7.57;;;2.60;81.20;;;0.54;91.74;96851.03;4978552;28;20037;-65
2021/11/23 03:32:07;;;;;;;12.10;8.80;;;2.60;81.40;;;0.56;92.10;96845.72;4994525;28;20095;-64
2021/11/23 03:34:37;;;;;;;12.65;9.00;;;2.60;81.60;;;0.54;92.45;96838.06;4979415;28;20095;-64
2021/11/23 03:37:10;;;;;;;11.27;8.05;;;2.60;81.60;;;0.54;92.64;96839.84;4979434;28;20037;-64
2021/11/23 03:39:36;;;;;;;11.52;7.50;;;2.70;81.70;;;0.54;92.03;96827.72;4995153;28;20046;-64
2021/11/23 03:42:03;;;;;;;13.65;8.85;;;2.70;81.50;;;0.56;92.19;96833.63;4976158;28;20117;-64
2021/11/23 03:44:29;;;;;;;13.88;9.80;;;2.70;81.70;;;0.57;92.14;96827.50;5001570;28;20045;-67
2021/11/23 03:46:56;;;;;;;11.35;8.85;;;2.70;81.60;;;0.59;92.41;96835.97;5018670;28;20041;-66
2021/11/23 03:49:21;;;;;;;19.27;13.30;;;2.80;81.50;;;0.60;92.20;96832.47;4984523;28;20038;-63
2021/11/23 03:51:47;;;;;;;14.98;9.70;;;2.80;81.70;;;0.64;93.17;96832.22;4987816;28;20212;-64
2021/11/23 03:54:13;;;;;;;13.07;7.90;;;2.80;81.80;;;0.66;92.77;96838.13;4972585;28;20033;-66
2021/11/23 03:56:40;;;;;;;11.25;7.63;;;2.80;81.40;;;0.69;92.79;96835.34;5008604;28;20445;-64
2021/11/23 03:59:06;;;;;;;11.75;8.50;;;2.90;81.40;;;0.71;92.32;96846.41;4992635;28;20062;-64
2021/11/23 04:01:32;;;;;;;10.52;8.10;;;2.80;81.10;;;0.73;93.07;96841.94;5012250;28;20088;-64
2021/11/23 04:03:58;;;;;;;11.25;7.80;;;2.90;81.20;;;0.76;92.57;96841.72;4993456;28;20050;-64
2021/11/23 04:06:23;;;;;;;9.95;7.75;;;2.90;81.20;;;0.78;92.53;96839.84;4994404;28;20080;-64
2021/11/23 04:08:49;;;;;;;12.48;8.30;;;3.00;81.30;;;0.81;92.78;96847.38;4977662;28;20120;-64
2021/11/23 04:11:15;;;;;;;12.75;8.35;;;3.00;81.20;;;0.82;92.71;96846.47;5010427;28;20069;-65
2021/11/23 04:13:43;;;;;;;10.93;8.07;;;2.90;80.90;;;0.83;92.07;96848.94;5009664;28;20558;-64
2021/11/23 04:16:09;;;;;;;11.35;8.00;;;3.00;81.00;;;0.85;92.59;96851.41;4994156;28;20034;-64
2021/11/23 04:18:34;;;;;;;11.02;7.80;;;3.00;80.90;;;0.88;92.37;96851.19;4961412;28;20450;-64
2021/11/23 04:21:00;;;;;;;10.63;7.65;;;3.00;81.00;;;0.89;92.32;96852.84;4994082;28;20037;-64
2021/11/23 04:23:26;;;;;;;15.65;10.65;;;3.10;81.00;;;0.91;92.72;96863.94;4993679;28;20061;-63
2021/11/23 04:25:52;;;;;;;12.60;8.23;;;3.10;81.20;;;0.91;91.61;96867.34;5009973;28;20041;-63
2021/11/23 04:28:18;;;;;;;11.70;7.78;;;3.10;80.50;;;0.91;92.52;96858.75;4993869;28;20088;-63
2021/11/23 04:30:43;;;;;;;14.45;9.38;;;3.10;80.50;;;0.90;91.78;96864.84;4993585;28;20030;-64
2021/11/23 04:33:13;;;;;;;11.77;8.93;;;3.00;80.60;;;0.90;92.66;96859.66;4976075;28;20673;-64
2021/11/23 04:35:43;;;;;;;12.35;8.13;;;3.00;80.70;;;0.88;91.54;96861.53;5004942;28;20045;-65
2021/11/23 04:38:09;;;;;;;12.07;8.13;;;2.90;80.20;;;0.81;91.41;96857.75;4993803;28;20038;-64
2021/11/23 04:40:35;;;;;;;11.57;8.02;;;2.80;80.00;;;0.75;91.72;96855.59;4977884;28;20045;-64
2021/11/23 04:43:01;;;;;;;15.23;9.27;;;2.80;79.90;;;0.68;91.20;96859.56;4976505;28;20458;-64
2021/11/23 04:45:27;;;;;;;11.82;8.10;;;2.80;80.10;;;0.64;91.03;96860.72;4974556;28;20043;-64
2021/11/23 04:47:55;;;;;;;12.50;8.18;;;2.60;80.10;;;0.57;90.97;96874.09;4990015;28;20443;-64
2021/11/23 04:50:20;;;;;;;11.25;7.82;;;2.60;80.30;;;0.53;90.87;96872.66;4988519;28;20042;-65
2021/11/23 04:52:46;;;;;;;13.77;7.35;;;2.50;80.20;;;0.47;91.11;96888.63;4966198;28;20073;-65
2021/11/23 04:55:12;;;;;;;11.40;7.65;;;2.50;80.40;;;0.41;90.93;96889.03;4967509;28;20076;-68
2021/11/23 04:57:38;;;;;;;11.50;8.63;;;2.40;80.60;;;0.31;90.89;96888.03;4975960;28;20037;-66
2021/11/23 05:00:06;;;;;;;11.93;8.07;;;2.30;81.00;;;0.24;91.09;96887.66;4977549;28;20472;-66
2021/11/23 05:02:31;;;;;;;10.23;7.78;;;2.10;80.90;;;0.19;91.08;96896.63;4993504;28;20408;-66
2021/11/23 05:04:57;;;;;;;11.80;8.13;;;2.10;81.30;;;0.12;91.36;96895.41;4992126;28;20030;-66
2021/11/23 05:07:23;;;;;;;11.10;8.18;;;2.10;81.70;;;0.07;91.65;96893.16;4958224;28;20076;-67
2021/11/23 05:09:49;;;;;;;12.70;8.20;;;2.10;81.70;;;-0.01;91.67;96887.66;4989987;28;20039;-66
2021/11/23 05:12:14;;;;;;;11.38;7.63;;;1.90;81.80;;;-0.06;91.94;96898.31;4978704;28;20035;-67
2021/11/23 05:14:40;;;;;;;12.13;8.55;;;1.90;82.00;;;-0.10;92.06;96894.28;4974387;28;20065;-67
2021/11/23 05:17:06;;;;;;;12.55;7.97;;;1.90;82.10;;;-0.13;91.73;96894.50;4974209;28;20038;-66
2021/11/23 05:19:32;;;;;;;14.55;8.57;;;1.90;82.10;;;-0.18;91.49;96896.56;4974274;28;20030;-66
2021/11/23 05:21:57;;;;;;;11.30;7.85;;;1.80;82.10;;;-0.21;92.10;96896.78;4975686;28;20412;-66
2021/11/23 05:24:23;;;;;;;11.77;7.75;;;1.70;82.30;;;-0.24;91.69;96896.13;5009934;28;20034;-66
2021/11/23 05:26:49;;;;;;;12.60;8.98;;;1.80;82.30;;;-0.27;92.39;96897.16;4961417;28;20026;-67
2021/11/23 05:29:14;;;;;;;13.73;8.30;;;1.70;82.70;;;-0.31;92.26;96903.47;5010033;28;20054;-67
2021/11/23 05:31:40;;;;;;;11.25;8.30;;;1.70;82.60;;;-0.35;92.50;96896.88;5009397;28;20117;-65
2021/11/23 05:34:06;;;;;;;11.80;7.95;;;1.70;82.70;;;-0.36;92.24;96901.22;4993061;28;20159;-65
2021/11/23 05:36:32;;;;;;;16.48;9.15;;;1.70;82.70;;;-0.37;92.40;96901.31;4977227;28;20033;-66
2021/11/23 05:38:58;;;;;;;12.77;8.38;;;1.70;82.60;;;-0.34;92.56;96908.84;4993058;28;20049;-67
2021/11/23 05:41:24;;;;;;;11.32;8.40;;;1.70;82.70;;;-0.35;92.69;96902.03;4993490;28;20056;-65
2021/11/23 05:43:50;;;;;;;12.80;8.90;;;1.70;82.60;;;-0.36;92.91;96901.22;4975251;28;20513;-66
2021/11/23 05:46:16;;;;;;;13.60;9.02;;;1.70;82.70;;;-0.33;92.85;96902.75;4973699;28;20034;-66
2021/11/23 05:48:42;;;;;;;12.38;8.73;;;1.80;82.50;;;-0.32;92.82;96896.66;4957536;28;20116;-66
2021/11/23 05:51:07;;;;;;;11.57;8.20;;;1.80;82.40;;;-0.29;92.92;96898.19;4973680;28;20105;-65
2021/11/23 05:53:37;;;;;;;13.98;8.77;;;1.90;82.30;;;-0.29;93.34;96903.38;4987107;28;20555;-66
2021/11/23 05:56:03;;;;;;;14.07;8.45;;;1.80;82.20;;;-0.30;93.42;96902.53;5008157;28;20041;-66
2021/11/23 05:58:29;;;;;;;13.27;8.13;;;1.80;82.20;;;-0.30;92.64;96902.53;4976796;28;20033;-66
2021/11/23 06:00:54;;;;;;;12.70;8.48;;;1.70;82.10;;;-0.32;92.66;96899.25;4992654;28;20469;-67
2021/11/23 06:03:20;;;;;;;13.05;8.82;;;1.80;82.20;;;-0.36;92.65;96897.78;4992514;28;20592;-66
2021/11/23 06:05:46;;;;;;;14.65;8.50;;;1.70;82.30;;;-0.35;92.96;96902.03;4976045;28;20034;-66
2021/11/23 06:08:12;;;;;;;13.52;8.30;;;1.80;82.10;;;-0.35;92.14;96902.03;4960314;28;20030;-66
2021/11/23 06:10:37;;;;;;;13.93;8.25;;;1.70;82.00;;;-0.38;92.71;96902.25;5009317;28;20125;-67
2021/11/23 06:13:03;;;;;;;15.95;10.80;;;1.70;82.30;;;-0.37;93.32;96901.31;4959113;28;20045;-66
2021/11/23 06:15:29;;;;;;;15.30;9.88;;;1.70;82.60;;;-0.38;92.51;96907.41;4973170;28;20078;-67
2021/11/23 06:18:02;;;;;;;12.45;8.90;;;1.70;82.50;;;-0.40;92.87;96907.50;4988698;28;20146;-66
2021/11/23 06:20:32;;;;;;;14.25;9.70;;;1.70;82.30;;;-0.43;92.65;96906.91;4974270;28;20035;-66
2021/11/23 06:23:02;;;;;;;13.07;8.52;;;1.60;82.20;;;-0.47;92.68;96906.25;4971889;28;20117;-66
2021/11/23 06:25:28;;;;;;;12.23;8.80;;;1.60;82.30;;;-0.48;92.64;96914.09;4992563;28;20048;-67
2021/11/23 06:27:54;;;;;;;12.38;8.65;;;1.50;82.30;;;-0.51;92.80;96922.06;4975829;28;20464;-67
2021/11/23 06:30:20;;;;;;;12.90;8.55;;;1.50;82.20;;;-0.54;92.52;96923.09;4992556;28;20030;-68
2021/11/23 06:32:47;;;;;;;13.88;8.68;;;1.50;82.40;;;-0.58;92.61;96926.81;5007829;28;20046;-67
2021/11/23 06:35:13;;;;;;;12.75;8.68;;;1.40;82.40;;;-0.60;92.84;96926.09;4976306;28;20037;-67
2021/11/23 06:37:38;;;;;;;12.82;8.68;;;1.50;82.50;;;-0.59;93.25;96926.91;4975564;28;20125;-71
2021/11/23 06:40:06;;;;;;;14.85;8.93;;;1.50;82.40;;;-0.58;93.32;96933.72;4992443;28;20026;-66
2021/11/23 06:42:32;;;;;;;13.45;8.98;;;1.50;82.40;;;-0.62;92.82;96933.94;4965328;28;20030;-67
2021/11/23 06:44:57;;;;;;;14.52;8.93;;;1.50;82.20;;;-0.63;93.23;96934.88;4972656;28;20050;-67
2021/11/23 06:47:23;;;;;;;13.50;8.85;;;1.50;82.10;;;-0.63;92.72;96937.44;4989095;28;20093;-67
2021/11/23 06:49:51;;;;;;;12.25;8.48;;;1.50;82.10;;;-0.61;93.15;96947.69;4972385;28;20062;-67
2021/11/23 06:52:18;;;;;;;13.98;9.13;;;1.60;82.20;;;-0.63;93.06;96945.19;4998259;28;20053;-67
2021/11/23 06:54:44;;;;;;;13.55;9.05;;;1.60;82.00;;;-0.61;92.90;96955.44;4978539;28;20079;-67
2021/11/23 06:57:10;;;;;;;12.75;8.90;;;1.60;82.00;;;-0.60;93.36;96966.59;4976753;28;20128;-66
2021/11/23 06:59:37;;;;;;;13.68;8.75;;;1.60;81.90;;;-0.56;93.24;96971.47;4960051;28;20125;-67
2021/11/23 07:02:03;;;;;;;15.82;7.95;;;1.60;81.90;;;-0.54;93.57;96969.59;4993223;28;20124;-67
2021/11/23 07:04:29;;;;;;;11.98;8.52;;;1.70;81.90;;;-0.49;93.41;96975.28;4988860;28;20058;-67
2021/11/23 07:06:54;;;;;;;13.80;8.98;;;1.80;81.90;;;-0.45;93.36;96986.28;4972686;28;20461;-67
2021/11/23 07:09:20;;;;;;;15.40;9.63;;;1.80;81.70;;;-0.39;93.24;96991.06;4972568;28;20458;-67
2021/11/23 07:11:46;;;;;;;14.73;10.18;;;1.90;81.70;;;-0.34;93.67;96994.16;4960099;28;20060;-67
2021/11/23 07:14:12;;;;;;;16.60;10.13;;;1.90;81.70;;;-0.29;93.52;96992.09;4959463;28;20446;-66
2021/11/23 07:16:39;;;;;;;13.40;9.10;;;2.00;81.40;;;-0.23;93.94;96991.69;5008376;28;20054;-66
2021/11/23 07:19:04;;;;;;;16.42;9.68;;;2.10;81.60;;;-0.17;93.37;96993.88;4976040;28;20612;-67
2021/11/23 07:21:30;;;;;;;12.73;8.55;;;2.10;81.50;;;-0.10;94.12;96997.72;4975257;28;20152;-66
2021/11/23 07:23:57;;;;;;;12.32;8.20;;;2.20;81.40;;;-0.05;93.17;97003.41;5008777;28;20104;-67
2021/11/23 07:26:24;;;;;;;11.00;8.07;;;2.20;81.30;;;-0.01;93.16;96997.09;4976187;28;20026;-67
2021/11/23 07:28:49;;;;;;;12.85;8.77;;;2.40;81.40;;;0.05;93.75;97002.81;4991762;28;20030;-67
2021/11/23 07:31:15;;;;;;;14.18;9.15;;;2.40;80.90;;;0.10;93.63;97008.50;4979327;28;20084;-67
2021/11/23 07:33:41;;;;;;;13.02;9.68;;;2.40;81.10;;;0.16;93.23;97002.91;4971781;28;20046;-67
2021/11/23 07:36:07;;;;;;;14.77;9.18;;;2.60;81.10;;;0.21;93.28;97009.44;4976007;28;20096;-66
2021/11/23 07:38:32;;;;;;;11.77;8.23;;;2.60;81.00;;;0.29;93.51;97006.34;4995518;28;20518;-66
2021/11/23 07:40:58;;;;;;;13.00;8.77;;;2.70;80.90;;;0.34;93.89;97004.28;5011712;28;20080;-67
2021/11/23 07:43:24;;;;;;;12.02;9.07;;;2.70;80.20;;;0.41;93.18;97002.91;4995302;28;20037;-67
2021/11/23 07:45:50;;;;;;;11.75;8.60;;;2.80;80.20;;;0.48;92.79;97004.19;4994479;28;20034;-67
2021/11/23 07:48:15;;;;;;;11.35;7.68;;;2.90;80.10;;;0.55;93.27;97004.56;5011640;28;20030;-67
2021/11/23 07:50:41;;;;;;;11.48;8.15;;;3.10;79.70;;;0.63;92.61;97001.44;4978605;28;20038;-67
2021/11/23 07:53:07;;;;;;;12.57;8.32;;;3.20;79.00;;;0.69;92.38;97006.22;5011073;28;20085;-66
2021/11/23 07:55:33;;;;;;;11.93;7.70;;;3.20;78.40;;;0.74;92.38;97004.97;4978532;28;20122;-67
2021/11/23 07:57:59;;;;;;;10.93;8.00;;;3.30;77.90;;;0.83;92.81;97006.09;4975115;28;20129;-67
2021/11/23 08:00:26;;;;;;;10.50;8.25;;;3.40;77.70;;;0.90;92.29;97005.53;4975644;28;20577;-67
2021/11/23 08:02:52;;;;;;;11.70;7.70;;;3.50;77.00;;;1.01;91.96;97002.22;4982236;28;20037;-66
2021/11/23 08:05:26;;;;;;;10.25;7.90;;;3.70;77.00;;;1.14;92.06;97004.78;5011734;28;20426;-67
2021/11/23 08:07:52;;;;;;;12.57;8.00;;;3.90;76.90;;;1.23;91.71;97007.53;4995638;28;20558;-66
2021/11/23 08:10:18;;;;;;;10.77;7.95;;;4.00;77.00;;;1.34;91.72;97011.94;4995246;28;20061;-66
2021/11/23 08:12:45;;;;;;;10.60;7.75;;;4.10;76.70;;;1.42;91.35;97016.59;4994282;28;20466;-66
2021/11/23 08:15:11;;;;;;;12.40;8.23;;;4.10;76.20;;;1.49;91.41;97012.63;4995240;28;20054;-66
2021/11/23 08:17:37;;;;;;;10.32;7.57;;;4.20;75.70;;;1.56;90.53;97019.00;4979032;28;20424;-66
2021/11/23 08:20:05;;;;;;;10.88;7.47;;;4.30;74.90;;;1.65;91.03;97020.94;4994372;28;20038;-66
2021/11/23 08:22:30;;;;;;;12.77;8.00;;;4.40;75.00;;;1.74;90.63;97012.50;4994233;28;20053;-67
2021/11/23 08:24:56;;;;;;;12.02;8.00;;;4.50;74.90;;;1.79;90.01;97020.75;4994959;28;20034;-66
2021/11/23 08:27:22;;;;;;;11.20;8.40;;;4.50;74.80;;;1.81;89.06;97005.94;4962321;28;20041;-66
2021/11/23 08:29:48;;;;;;;10.57;7.45;;;4.50;74.20;;;1.87;89.17;97014.19;4977833;28;20041;-67
2021/11/23 08:32:14;;;;;;;14.77;8.25;;;4.60;74.40;;;1.95;89.12;97009.25;5010423;28;20034;-66
2021/11/23 08:34:39;;;;;;;10.25;7.32;;;4.70;73.30;;;2.02;89.31;97010.44;4975287;28;20038;-67
2021/11/23 08:37:05;;;;;;;11.27;8.30;;;4.90;72.90;;;2.13;89.29;97007.91;4974917;28;20115;-67
2021/11/23 08:39:31;;;;;;;9.32;7.68;;;5.10;72.70;;;2.24;88.84;97000.13;4959081;28;20050;-67
2021/11/23 08:41:57;;;;;;;9.52;7.25;;;5.20;72.10;;;2.36;88.16;97004.41;4974390;28;20034;-68
2021/11/23 08:44:23;;;;;;;10.23;7.30;;;5.50;71.40;;;2.52;87.84;97005.84;5007747;28;20057;-67
2021/11/23 08:46:48;;;;;;;8.45;6.70;;;5.70;70.80;;;2.68;87.71;97019.28;4994054;28;20405;-67
2021/11/23 08:49:14;;;;;;;8.80;7.00;;;5.80;69.70;;;2.83;87.31;97022.50;4994391;28;20064;-66
2021/11/23 08:51:41;;;;;;;10.63;7.20;;;6.10;69.60;;;2.98;86.91;97022.16;5010128;28;20073;-66
2021/11/23 08:54:07;;;;;;;10.68;7.43;;;6.20;68.40;;;3.14;86.82;97020.94;4969541;28;20492;-67
2021/11/23 08:56:43;;;;;;;9.50;7.07;;;6.50;68.00;;;3.29;86.10;97009.34;4994082;28;20038;-66
2021/11/23 08:59:12;;;;;;;7.88;7.07;;;6.80;66.70;;;3.51;85.34;97018.84;4980351;28;20058;-66
2021/11/23 09:01:39;;;;;;;8.52;7.22;;;7.30;65.80;;;3.71;84.94;97014.66;4978521;28;20057;-67
2021/11/23 09:04:04;;;;;;;7.97;6.53;;;7.80;64.30;;;3.89;85.07;97014.00;4987787;28;20120;-67
2021/11/23 09:06:33;;;;;;;8.02;6.85;;;7.90;62.80;;;4.08;83.50;97028.13;4961858;28;20113;-67
2021/11/23 09:08:59;;;;;;;7.95;7.10;;;7.90;62.40;;;4.26;83.07;97022.19;4947934;28;20042;-67
2021/11/23 09:11:26;;;;;;;7.53;6.65;;;8.50;61.20;;;4.48;82.93;97023.00;4990687;28;20030;-67
2021/11/23 09:13:53;;;;;;;7.60;6.80;;;9.70;57.20;;;4.74;82.07;97026.03;4973249;28;20584;-68
2021/11/23 09:16:19;;;;;;;7.20;6.50;;;10.80;53.20;;;5.04;81.82;97027.81;4974550;28;20145;-67
2021/11/23 09:18:45;;;;;;;7.78;6.75;;;11.90;48.80;;;5.41;81.78;97026.25;4984849;28;20077;-67
2021/11/23 09:21:11;;;;;;;7.28;6.15;;;13.10;45.80;;;5.81;81.42;97030.59;4993974;28;20128;-67
2021/11/23 09:23:37;;;;;;;6.70;6.00;;;13.70;44.30;;;6.24;80.79;97026.78;5010943;28;20034;-67
2021/11/23 09:26:03;;;;;;;6.75;6.07;;;14.50;42.10;;;6.66;79.78;97028.06;4993142;28;20046;-67
2021/11/23 09:28:29;;;;;;;7.47;5.93;;;15.40;40.30;;;7.06;79.01;97029.59;4968970;28;20038;-67
2021/11/23 09:30:55;;;;;;;7.95;6.00;;;16.30;37.80;;;7.41;78.31;97028.03;4990080;28;20466;-67
2021/11/23 09:33:20;;;;;;;7.18;5.80;;;17.30;35.90;;;7.82;77.23;97018.81;4973862;28;20038;-67
2021/11/23 09:35:46;;;;;;;6.63;6.00;;;17.80;34.10;;;8.26;76.74;97027.56;4986357;28;20464;-67
2021/11/23 09:38:12;;;;;;;6.22;5.18;;;18.60;33.40;;;8.66;74.33;97028.88;4977163;28;20598;-67
2021/11/23 09:40:38;;;;;;;6.97;5.57;;;19.40;32.00;;;9.04;74.51;97020.56;4977195;28;20056;-67
2021/11/23 09:43:04;;;;;;;7.45;5.78;;;20.10;30.90;;;9.44;73.07;97013.84;4960637;28;20156;-67
2021/11/23 09:45:29;;;;;;;6.50;5.60;;;20.60;30.40;;;9.78;71.61;96998.84;4970278;28;20041;-67
2021/11/23 09:47:56;;;;;;;7.28;5.85;;;21.20;28.90;;;10.05;71.32;97002.97;4976406;28;20077;-67
2021/11/23 09:50:21;;;;;;;6.50;5.80;;;21.90;28.00;;;10.24;70.79;97007.13;4977190;28;20113;-67
2021/11/23 09:52:47;;;;;;;6.13;5.28;;;22.60;26.80;;;10.43;69.96;97003.34;4976397;28;20124;-67
2021/11/23 09:55:14;;;;;;;6.40;5.68;;;23.10;26.00;;;10.54;68.92;97007.41;4967334;28;20113;-66
2021/11/23 09:57:40;;;;;;;6.57;5.80;;;23.50;25.30;;;10.69;68.57;97011.03;4971159;28;20038;-67
2021/11/23 10:00:29;;;;;;;5.65;5.15;;;24.00;24.50;;;10.97;59.25;96998.28;4960550;28;20454;-66
2021/11/23 10:03:10;;;;;;;6.07;5.45;;;24.40;24.40;;;11.28;59.05;96996.53;4993082;28;20545;-67
2021/11/23 10:05:38;;;;;;;6.55;5.13;;;25.10;23.60;;;11.38;68.25;96987.59;4993019;28;20041;-66
2021/11/23 10:08:22;;;;;;;6.07;5.22;;;25.20;23.10;;;11.52;59.13;96986.84;4992450;28;20196;-67
2021/11/23 10:10:53;;;;;;;5.95;5.00;;;25.70;22.50;;;11.71;66.12;96990.88;4992670;28;20042;-67
2021/11/23 10:13:20;;;;;;;6.95;5.07;;;25.70;22.30;;;11.97;67.31;96986.13;4977426;28;20088;-67
2021/11/23 10:15:47;;;;;;;7.47;5.07;;;26.40;22.00;;;12.17;67.33;96986.47;4960282;28;20068;-67
2021/11/23 10:18:24;;;;;;;6.00;5.38;;;26.60;21.40;;;12.39;60.03;96982.97;4976906;28;20033;-67
2021/11/23 10:20:55;;;;;;;6.32;4.95;;;26.80;21.40;;;12.58;59.46;96984.31;4966741;28;20034;-67